This is the latest recevied weather packets stored in our database for station/object N7TUG. If no packets are shown the sender has not sent any weather packets the latest 10 day(s).
| Time | Temp. | Humidity | Pressure | Rain* | Wind** | Luminosity | Snow |
|---|---|---|---|---|---|---|---|
| 1777864515 | 23.33° C | 49% | 1008.4 hPa | 0 mm | - | 28 W/m² | - |
| 1777862715 | 24.44° C | 48% | 1008.5 hPa | 0 mm | - | 48 W/m² | - |
| 1777860935 | 24.44° C | 47% | 1008.6 hPa | 0 mm | - | 91 W/m² | - |
| 1777856735 | 23.89° C | 49% | 1009.1 hPa | 0 mm | - | 267 W/m² | - |
| 1777854915 | 25° C | 50% | 1009.3 hPa | 0 mm | - | 359 W/m² | - |
| 1777848915 | 24.44° C | 54% | 1010.4 hPa | 0 mm | - | 651 W/m² | - |
| 1777837515 | 22.22° C | 59% | 1012.5 hPa | 0 mm | - | 880 W/m² | - |
| 1777834515 | 21.11° C | 64% | 1013.1 hPa | 0 mm | - | 834 W/m² | - |
| 1777833335 | 20.56° C | 65% | 1013.1 hPa | 0 mm | - | 802 W/m² | - |
| 1777832716 | 20° C | 65% | 1013.3 hPa | 0 mm | - | 788 W/m² | - |
| 1777829115 | 20° C | 67% | 1013.6 hPa | 0 mm | - | 658 W/m² | - |
| 1777828516 | 19.44° C | 68% | 1013.6 hPa | 0 mm | - | 632 W/m² | - |
| 1777824914 | 18.89° C | 67% | 1013.8 hPa | 0 mm | - | 464 W/m² | - |
| 1777824315 | 18.33° C | 67% | 1013.9 hPa | 0 mm | - | 433 W/m² | - |
| 1777818915 | 16.67° C | 72% | 1013.9 hPa | 0 mm | - | 161 W/m² | - |
| 1777818315 | 16.67° C | 73% | 1014 hPa | 0 mm | - | 118 W/m² | - |
| 1777814115 | 12.22° C | 81% | 1013.6 hPa | 0 mm | - | 34 W/m² | - |
| 1777812315 | 12.78° C | 80% | 1013.6 hPa | 0 mm | - | 20 W/m² | - |
| 1777808715 | 12.78° C | 79% | 1013.8 hPa | 0 mm | - | 18 W/m² | - |
| 1777806315 | 13.33° C | 79% | 1013.9 hPa | 0 mm | - | 18 W/m² | - |
| 1777802115 | 13.89° C | 77% | 1014 hPa | 0 mm | - | 18 W/m² | - |
| 1777800915 | 14.44° C | 75% | 1014 hPa | 0 mm | - | 18 W/m² | - |
| 1777798515 | 15° C | 73% | 1014 hPa | 0 mm | - | 18 W/m² | - |
| 1777797935 | 15° C | 73% | 1014 hPa | 0 mm | - | 18 W/m² | - |
| 1777796115 | 15° C | 72% | 1013.9 hPa | 0 mm | - | 18 W/m² | - |
* Rain latest hour (hover to see other rain measurements)
** Current wind speed in m/s (hover to see current wind gust speed)